createdAt,value
2023-03-02T00:03:18.222Z,56.30
2023-03-02T00:08:21.708Z,56.40
2023-03-02T00:13:26.966Z,56.40
2023-03-02T00:18:30.467Z,56.30
2023-03-02T00:23:33.932Z,56.40
2023-03-02T00:28:38.707Z,56.50
2023-03-02T00:33:42.129Z,56.50
2023-03-02T00:38:45.702Z,56.70
2023-03-02T00:43:51.306Z,56.70
2023-03-02T00:48:54.733Z,56.90
2023-03-02T00:53:58.205Z,57.00
2023-03-02T00:59:11.175Z,57.00
2023-03-02T01:04:14.599Z,57.20
2023-03-02T01:09:18.221Z,57.30
2023-03-02T01:14:25.350Z,57.40
2023-03-02T01:19:28.868Z,57.30
2023-03-02T01:24:33.704Z,57.60
2023-03-02T01:29:39.089Z,57.90
2023-03-02T01:34:42.880Z,58.30
2023-03-02T01:39:46.292Z,58.60
2023-03-02T01:44:54.192Z,58.70
2023-03-02T01:50:02.495Z,58.90
2023-03-02T01:55:09.166Z,59.30
2023-03-02T02:00:19.512Z,59.50
2023-03-02T02:05:26.965Z,59.40
2023-03-02T02:10:32.026Z,59.40
2023-03-02T02:15:37.310Z,59.80
2023-03-02T02:20:42.831Z,60.30
2023-03-02T02:25:59.423Z,60.30
2023-03-02T02:31:09.211Z,60.20
2023-03-02T02:36:18.502Z,59.90
2023-03-02T02:41:28.482Z,59.70
2023-03-02T02:46:33.801Z,59.40
2023-03-02T02:51:37.809Z,59.10
2023-03-02T02:56:44.430Z,59.10
2023-03-02T03:01:48.708Z,59.20
2023-03-02T03:06:54.105Z,59.40
2023-03-02T03:12:04.155Z,59.70
2023-03-02T03:17:12.707Z,59.70
2023-03-02T03:22:17.682Z,59.60
2023-03-02T03:27:22.413Z,59.60
2023-03-02T03:32:25.902Z,59.70
2023-03-02T03:37:29.372Z,59.70
2023-03-02T03:42:34.129Z,59.80
2023-03-02T03:47:37.704Z,59.80
2023-03-02T03:52:41.375Z,59.60
2023-03-02T03:57:46.371Z,59.80
2023-03-02T04:02:50.392Z,60.10
2023-03-02T04:07:54.368Z,60.40
2023-03-02T04:12:59.453Z,60.80
2023-03-02T04:18:03.144Z,61.10
2023-03-02T04:23:06.618Z,61.00
2023-03-02T04:28:11.693Z,60.90
2023-03-02T04:33:15.218Z,60.80
2023-03-02T04:38:18.728Z,61.30
2023-03-02T04:43:23.547Z,61.80
2023-03-02T04:48:27.217Z,62.30
2023-03-02T04:53:30.873Z,62.50
2023-03-02T04:58:35.901Z,62.40
2023-03-02T05:03:39.369Z,62.40
2023-03-02T05:08:42.993Z,62.20
2023-03-02T05:13:47.878Z,62.30
2023-03-02T05:18:51.807Z,62.40
2023-03-02T05:23:55.811Z,62.50
2023-03-02T05:29:00.603Z,62.50
2023-03-02T05:34:04.885Z,62.50
2023-03-02T05:39:08.960Z,62.20
2023-03-02T05:44:13.742Z,62.60
2023-03-02T05:49:17.216Z,62.60
2023-03-02T05:54:20.957Z,62.50
2023-03-02T05:59:25.799Z,62.30
2023-03-02T06:04:29.214Z,62.50
2023-03-02T06:09:32.644Z,62.60
2023-03-02T06:14:38.124Z,62.70
2023-03-02T06:19:42.163Z,62.90
2023-03-02T06:24:45.657Z,63.00
2023-03-02T06:29:50.449Z,62.80
2023-03-02T06:34:53.877Z,63.00
2023-03-02T06:39:57.559Z,63.30
2023-03-02T06:45:02.545Z,63.90
2023-03-02T06:50:07.354Z,64.00
2023-03-02T06:55:11.442Z,63.90
2023-03-02T07:00:17.814Z,63.90
2023-03-02T07:05:21.278Z,63.70
2023-03-02T07:10:24.706Z,63.90
2023-03-02T07:15:29.846Z,63.90
2023-03-02T07:20:34.544Z,63.80
2023-03-02T07:25:38.102Z,63.90
2023-03-02T07:30:43.244Z,63.80
2023-03-02T07:35:47.240Z,63.70
2023-03-02T07:40:50.689Z,63.90
2023-03-02T07:45:55.506Z,63.80
2023-03-02T07:50:59.981Z,63.80
2023-03-02T07:56:08.023Z,63.70
2023-03-02T08:01:13.138Z,63.80
2023-03-02T08:06:16.552Z,64.00
2023-03-02T08:11:20.641Z,64.90
2023-03-02T08:16:26.506Z,65.40
2023-03-02T08:21:30.759Z,65.00
2023-03-02T08:26:34.296Z,65.00
2023-03-02T08:31:39.399Z,64.50
2023-03-02T08:36:44.057Z,64.00
2023-03-02T08:41:47.534Z,63.80
2023-03-02T08:46:52.914Z,63.50
2023-03-02T08:51:56.731Z,63.20
2023-03-02T08:57:00.140Z,62.70
2023-03-02T09:02:05.127Z,62.70
2023-03-02T09:07:08.573Z,62.50
2023-03-02T09:12:12.138Z,62.40
2023-03-02T09:17:17.378Z,62.10
2023-03-02T09:22:21.191Z,61.90
2023-03-02T09:27:24.663Z,61.60
2023-03-02T09:32:29.618Z,61.20
2023-03-02T09:37:33.155Z,61.00
2023-03-02T09:43:00.016Z,60.70
2023-03-02T09:48:16.395Z,60.70
2023-03-02T09:53:35.291Z,60.50
2023-03-02T09:58:42.634Z,60.30
2023-03-02T10:03:56.715Z,60.20
2023-03-02T10:09:00.313Z,60.20
2023-03-02T10:14:08.136Z,59.90
2023-03-02T10:19:17.479Z,60.00
2023-03-02T10:24:31.425Z,59.50
2023-03-02T10:29:46.035Z,59.20
2023-03-02T10:34:52.184Z,58.80
2023-03-02T10:39:56.010Z,58.80
2023-03-02T10:45:07.369Z,58.20
2023-03-02T10:50:23.276Z,57.90
2023-03-02T10:55:27.029Z,57.70
2023-03-02T11:00:32.002Z,57.60
2023-03-02T11:05:38.945Z,57.50
2023-03-02T11:10:52.196Z,57.10
2023-03-02T11:15:59.662Z,57.20
2023-03-02T11:21:06.932Z,57.10
2023-03-02T11:26:22.306Z,56.80
2023-03-02T11:31:33.910Z,57.00
2023-03-02T11:36:46.425Z,56.90
2023-03-02T11:41:50.627Z,57.50
2023-03-02T11:47:01.072Z,57.10
2023-03-02T11:52:06.144Z,56.20
2023-03-02T11:57:22.145Z,56.00
2023-03-02T12:02:26.669Z,55.00
2023-03-02T12:07:31.551Z,53.90
2023-03-02T12:12:44.122Z,53.80
2023-03-02T12:17:47.798Z,54.30
2023-03-02T12:22:52.684Z,54.50
2023-03-02T12:27:56.716Z,54.00
2023-03-02T12:33:04.530Z,53.40
2023-03-02T12:38:29.187Z,53.10
2023-03-02T12:43:33.667Z,52.50
2023-03-02T12:48:43.289Z,52.80
2023-03-02T12:53:49.240Z,53.20
2023-03-02T12:58:54.403Z,52.50
2023-03-02T13:03:58.172Z,52.60
2023-03-02T13:09:03.249Z,50.90
2023-03-02T13:14:20.298Z,49.80
2023-03-02T13:19:24.318Z,50.40
2023-03-02T13:24:33.923Z,49.70
2023-03-02T13:29:37.709Z,50.20
2023-03-02T13:34:49.493Z,50.30
2023-03-02T13:39:58.983Z,49.90
2023-03-02T13:45:15.963Z,48.30
2023-03-02T13:50:21.051Z,45.90
2023-03-02T13:55:26.657Z,47.30
2023-03-02T14:00:33.382Z,47.30
2023-03-02T14:05:36.891Z,46.40
2023-03-02T14:10:42.471Z,46.10
2023-03-02T14:15:50.291Z,45.40
2023-03-02T14:20:53.823Z,45.80
2023-03-02T14:25:59.952Z,46.50
2023-03-02T14:31:03.655Z,46.50
2023-03-02T14:36:07.833Z,45.60
2023-03-02T14:41:16.579Z,45.10
2023-03-02T14:46:20.307Z,44.60
2023-03-02T14:51:26.936Z,45.60
2023-03-02T14:56:31.786Z,45.60
2023-03-02T15:01:35.748Z,44.90
2023-03-02T15:06:40.988Z,45.90
2023-03-02T15:11:46.316Z,45.50
2023-03-02T15:16:49.976Z,45.40
2023-03-02T15:21:53.350Z,45.90
2023-03-02T15:26:58.096Z,45.80
2023-03-02T15:32:01.581Z,45.80
2023-03-02T15:37:05.012Z,46.00
2023-03-02T15:42:10.785Z,46.20
2023-03-02T15:47:15.685Z,46.50
2023-03-02T15:52:20.001Z,46.60
2023-03-02T15:57:24.764Z,46.80
2023-03-02T16:02:28.541Z,46.90
2023-03-02T16:07:32.017Z,47.00
2023-03-02T16:12:36.797Z,47.10
2023-03-02T16:17:40.180Z,48.30
2023-03-02T16:22:43.590Z,47.40
2023-03-02T16:27:48.335Z,47.60
2023-03-02T16:32:52.321Z,47.90
2023-03-02T16:37:55.995Z,48.30
2023-03-02T16:43:00.814Z,49.00
2023-03-02T16:48:04.369Z,50.20
2023-03-02T16:53:07.763Z,50.70
2023-03-02T16:58:12.759Z,51.40
2023-03-02T17:03:16.238Z,52.00
2023-03-02T17:08:19.646Z,52.80
2023-03-02T17:13:24.366Z,54.20
2023-03-02T17:18:28.772Z,55.30
2023-03-02T17:23:32.281Z,56.40
2023-03-02T17:28:36.971Z,57.70
2023-03-02T17:33:40.881Z,58.20
2023-03-02T17:38:44.316Z,58.30
2023-03-02T17:43:49.051Z,59.00
2023-03-02T17:48:54.698Z,59.70
2023-03-02T17:53:58.531Z,59.90
2023-03-02T17:59:05.185Z,59.80
2023-03-02T18:04:08.697Z,60.40
2023-03-02T18:09:12.228Z,61.20
2023-03-02T18:14:19.621Z,61.80
2023-03-02T18:19:23.498Z,62.00
2023-03-02T18:24:27.314Z,61.80
2023-03-02T18:29:32.673Z,62.50
2023-03-02T18:34:36.360Z,62.70
2023-03-02T18:39:40.108Z,63.20
2023-03-02T18:44:45.118Z,63.20
2023-03-02T18:49:49.776Z,64.00
2023-03-02T18:54:57.444Z,64.30
2023-03-02T19:00:02.232Z,64.40
2023-03-02T19:05:06.024Z,65.00
2023-03-02T19:10:10.718Z,65.50
2023-03-02T19:15:15.953Z,65.50
2023-03-02T19:20:21.016Z,65.70
2023-03-02T19:25:24.480Z,67.40
2023-03-02T19:30:29.561Z,67.10
2023-03-02T19:35:33.971Z,68.00
2023-03-02T19:40:38.346Z,68.30
2023-03-02T19:45:43.451Z,69.30
2023-03-02T19:50:47.113Z,68.90
2023-03-02T19:55:51.508Z,68.90
2023-03-02T20:00:56.533Z,69.30
2023-03-02T20:05:59.996Z,69.80
2023-03-02T20:11:03.493Z,70.20
2023-03-02T20:16:09.179Z,70.60
2023-03-02T20:21:12.865Z,70.40
2023-03-02T20:26:16.552Z,70.60
2023-03-02T20:31:21.621Z,70.80
2023-03-02T20:36:28.627Z,70.70
2023-03-02T20:41:32.765Z,70.70
2023-03-02T20:46:41.615Z,70.80
2023-03-02T20:51:52.796Z,70.80
2023-03-02T20:56:56.340Z,70.90
2023-03-02T21:02:01.526Z,71.20
2023-03-02T21:07:05.032Z,71.40
2023-03-02T21:12:11.850Z,71.10
2023-03-02T21:17:17.038Z,70.90
2023-03-02T21:22:20.708Z,71.20
2023-03-02T21:27:24.288Z,71.40
2023-03-02T21:32:29.019Z,71.40
2023-03-02T21:37:32.754Z,71.50
2023-03-02T21:42:36.284Z,71.70
2023-03-02T21:47:42.219Z,71.50
2023-03-02T21:52:45.700Z,71.20
2023-03-02T21:57:49.421Z,71.10
2023-03-02T22:02:54.462Z,70.70
2023-03-02T22:07:58.388Z,70.50
2023-03-02T22:13:17.419Z,70.40
2023-03-02T22:18:25.842Z,70.20
2023-03-02T22:23:29.266Z,69.90
2023-03-02T22:28:34.176Z,69.80
2023-03-02T22:33:41.164Z,70.00
2023-03-02T22:38:44.542Z,70.20
2023-03-02T22:43:49.493Z,70.00
2023-03-02T22:48:55.154Z,70.20
2023-03-02T22:54:00.634Z,70.10
2023-03-02T22:59:10.206Z,70.00
2023-03-02T23:04:19.872Z,69.90
2023-03-02T23:09:25.557Z,70.00
2023-03-02T23:14:30.660Z,70.00
2023-03-02T23:19:35.501Z,70.10
2023-03-02T23:24:38.864Z,70.30
2023-03-02T23:29:42.249Z,70.30
2023-03-02T23:34:47.052Z,70.60
2023-03-02T23:39:50.654Z,70.80
2023-03-02T23:44:55.613Z,70.70
2023-03-02T23:50:00.405Z,70.80
2023-03-02T23:55:03.995Z,70.90
